createdAt,value
2018-10-21T00:02:19.014Z,99503.34
2018-10-21T00:04:47.413Z,99507.80
2018-10-21T00:07:15.841Z,99500.25
2018-10-21T00:09:44.228Z,99498.86
2018-10-21T00:12:29.912Z,99500.75
2018-10-21T00:14:58.488Z,99502.52
2018-10-21T00:17:26.905Z,99503.11
2018-10-21T00:19:55.234Z,99507.05
2018-10-21T00:22:23.695Z,99508.33
2018-10-21T00:24:52.097Z,99507.13
2018-10-21T00:27:20.568Z,99506.05
2018-10-21T00:29:51.033Z,99503.86
2018-10-21T00:32:19.361Z,99505.73
2018-10-21T00:34:47.783Z,99504.86
2018-10-21T00:37:16.188Z,99504.09
2018-10-21T00:39:44.597Z,99488.70
2018-10-21T00:42:16.639Z,99490.44
2018-10-21T00:44:44.934Z,99492.38
2018-10-21T00:47:13.402Z,99493.86
2018-10-21T00:49:41.740Z,99492.64
2018-10-21T00:52:10.196Z,99483.52
2018-10-21T00:54:38.578Z,99493.70
2018-10-21T00:57:06.984Z,99491.73
2018-10-21T00:59:35.323Z,99485.07
2018-10-21T01:02:03.688Z,99484.48
2018-10-21T01:04:31.963Z,99482.29
2018-10-21T01:07:00.391Z,99487.29
2018-10-21T01:09:28.827Z,99483.02
2018-10-21T01:11:57.145Z,99482.75
2018-10-21T01:14:25.495Z,99482.75
2018-10-21T01:16:53.884Z,99485.81
2018-10-21T01:19:35.166Z,99482.09
2018-10-21T01:22:03.544Z,99479.12
2018-10-21T01:24:33.961Z,99481.58
2018-10-21T01:27:02.424Z,99479.10
2018-10-21T01:29:47.372Z,99474.95
2018-10-21T01:32:17.372Z,99474.70
2018-10-21T01:34:45.941Z,99469.84
2018-10-21T01:37:16.355Z,99461.62
2018-10-21T01:40:52.827Z,99464.70
2018-10-21T01:43:22.433Z,99463.02
2018-10-21T01:45:56.389Z,99463.01
2018-10-21T01:48:25.882Z,99462.92
2018-10-21T01:50:54.254Z,99450.31
2018-10-21T01:53:23.099Z,99457.23
2018-10-21T01:55:51.497Z,99450.74
2018-10-21T01:58:19.946Z,99453.76
2018-10-21T02:00:48.324Z,99454.54
2018-10-21T02:03:17.113Z,99459.30
2018-10-21T02:05:46.343Z,99461.75
2018-10-21T02:08:14.656Z,99458.55
2018-10-21T02:10:42.978Z,99458.63
2018-10-21T02:13:11.398Z,99446.94
2018-10-21T02:15:39.824Z,99446.83
2018-10-21T02:18:08.151Z,99446.45
2018-10-21T02:20:36.497Z,99451.11
2018-10-21T02:23:04.887Z,99450.67
2018-10-21T02:25:33.223Z,99447.59
2018-10-21T02:28:02.683Z,99449.15
2018-10-21T02:30:31.703Z,99447.98
2018-10-21T02:33:02.428Z,99455.00
2018-10-21T02:35:30.695Z,99441.97
2018-10-21T02:37:59.114Z,99438.31
2018-10-21T02:41:41.068Z,99444.89
2018-10-21T02:44:11.687Z,99439.18
2018-10-21T02:46:40.242Z,99436.59
2018-10-21T02:49:09.343Z,99436.43
2018-10-21T02:51:37.705Z,99431.94
2018-10-21T02:54:06.799Z,99434.80
2018-10-21T02:56:35.101Z,99433.19
2018-10-21T02:59:03.402Z,99442.59
2018-10-21T03:01:36.062Z,99438.05
2018-10-21T03:04:04.379Z,99433.94
2018-10-21T03:06:32.703Z,99435.53
2018-10-21T03:09:03.231Z,99435.61
2018-10-21T03:11:31.579Z,99441.73
2018-10-21T03:13:59.887Z,99441.78
2018-10-21T03:16:28.178Z,99449.88
2018-10-21T03:18:56.561Z,99452.32
2018-10-21T03:21:24.907Z,99458.25
2018-10-21T03:26:49.413Z,99468.18
2018-10-21T03:29:17.708Z,99457.09
2018-10-21T03:31:46.021Z,99460.23
2018-10-21T03:34:14.347Z,99461.63
2018-10-21T03:36:42.622Z,99462.34
2018-10-21T03:39:11.516Z,99466.91
2018-10-21T03:41:39.923Z,99466.13
2018-10-21T03:44:08.269Z,99463.64
2018-10-21T03:46:36.609Z,99465.48
2018-10-21T03:49:04.933Z,99472.12
2018-10-21T03:51:33.212Z,99478.61
2018-10-21T03:54:01.590Z,99474.84
2018-10-21T03:56:29.948Z,99477.86
2018-10-21T03:58:58.362Z,99483.54
2018-10-21T04:01:26.826Z,99479.97
2018-10-21T04:03:55.099Z,99485.91
2018-10-21T04:06:23.446Z,99474.92
2018-10-21T04:08:55.107Z,99483.05
2018-10-21T04:11:23.510Z,99473.53
2018-10-21T04:13:51.786Z,99473.44
2018-10-21T04:16:30.187Z,99467.69
2018-10-21T04:18:58.526Z,99465.16
2018-10-21T04:21:26.907Z,99474.60
2018-10-21T04:23:55.247Z,99481.19
2018-10-21T04:26:23.730Z,99487.42
2018-10-21T04:28:52.002Z,99486.31
2018-10-21T04:31:20.381Z,99478.13
2018-10-21T04:33:48.739Z,99485.17
2018-10-21T04:36:20.089Z,99476.55
2018-10-21T04:40:07.524Z,99474.44
2018-10-21T04:42:35.734Z,99465.56
2018-10-21T04:45:04.461Z,99466.50
2018-10-21T04:47:37.421Z,99463.86
2018-10-21T04:50:07.022Z,99475.98
2018-10-21T04:52:35.356Z,99470.09
2018-10-21T04:55:05.736Z,99471.33
2018-10-21T04:57:47.499Z,99466.31
2018-10-21T05:00:20.504Z,99472.89
2018-10-21T05:02:48.768Z,99469.21
2018-10-21T05:05:17.167Z,99464.81
2018-10-21T05:07:45.448Z,99467.30
2018-10-21T05:10:20.998Z,99469.30
2018-10-21T05:12:49.329Z,99450.81
2018-10-21T05:15:17.727Z,99456.78
2018-10-21T05:17:45.982Z,99449.47
2018-10-21T05:20:14.532Z,99449.38
2018-10-21T05:22:43.135Z,99439.77
2018-10-21T05:25:11.917Z,99443.44
2018-10-21T05:27:40.350Z,99445.50
2018-10-21T05:30:13.231Z,99442.39
2018-10-21T05:32:41.978Z,99434.96
2018-10-21T05:35:28.866Z,99439.73
2018-10-21T05:37:57.299Z,99454.38
2018-10-21T05:40:25.677Z,99452.91
2018-10-21T05:42:53.971Z,99443.77
2018-10-21T05:45:22.501Z,99447.95
2018-10-21T05:47:50.851Z,99454.77
2018-10-21T05:50:19.219Z,99449.63
2018-10-21T05:52:47.603Z,99452.40
2018-10-21T05:55:16.353Z,99445.86
2018-10-21T05:57:56.130Z,99449.95
2018-10-21T06:00:24.414Z,99446.94
2018-10-21T06:02:57.543Z,99447.01
2018-10-21T06:05:45.196Z,99447.81
2018-10-21T06:08:15.631Z,99454.39
2018-10-21T06:10:44.612Z,99454.27
2018-10-21T06:13:26.254Z,99456.26
2018-10-21T06:15:55.654Z,99454.57
2018-10-21T06:18:26.594Z,99458.31
2018-10-21T06:20:58.498Z,99460.14
2018-10-21T06:23:26.873Z,99461.97
2018-10-21T06:25:55.315Z,99472.27
2018-10-21T06:28:23.691Z,99480.89
2018-10-21T06:30:52.535Z,99487.77
2018-10-21T06:33:20.953Z,99486.09
2018-10-21T06:35:52.799Z,99487.31
2018-10-21T06:38:21.171Z,99492.88
2018-10-21T06:41:04.059Z,99497.77
2018-10-21T06:43:38.679Z,99497.78
2018-10-21T06:46:06.997Z,99491.77
2018-10-21T06:48:35.558Z,99491.56
2018-10-21T06:51:04.282Z,99495.33
2018-10-21T06:53:32.691Z,99488.88
2018-10-21T06:56:01.218Z,99494.34
2018-10-21T06:58:29.864Z,99496.59
2018-10-21T07:01:00.710Z,99494.38
2018-10-21T07:03:29.144Z,99489.95
2018-10-21T07:06:19.351Z,99496.58
2018-10-21T07:09:06.378Z,99494.91
2018-10-21T07:11:35.835Z,99495.31
2018-10-21T07:14:04.302Z,99495.48
2018-10-21T07:16:32.952Z,99501.06
2018-10-21T07:19:01.274Z,99504.41
2018-10-21T07:21:29.684Z,99500.30
2018-10-21T07:23:58.111Z,99492.88
2018-10-21T07:26:34.078Z,99508.02
2018-10-21T07:29:02.577Z,99506.30
2018-10-21T07:31:31.120Z,99508.66
2018-10-21T07:33:59.482Z,99511.92
2018-10-21T07:36:27.875Z,99511.92
2018-10-21T07:38:56.231Z,99509.97
2018-10-21T07:41:24.631Z,99507.34
2018-10-21T07:43:52.995Z,99509.52
2018-10-21T07:46:21.483Z,99516.75
2018-10-21T07:48:49.836Z,99510.21
2018-10-21T07:51:18.255Z,99510.45
2018-10-21T07:53:46.563Z,99511.52
2018-10-21T07:56:15.043Z,99512.12
2018-10-21T07:58:43.453Z,99499.51
2018-10-21T08:01:11.897Z,99500.62
2018-10-21T08:03:40.249Z,99490.42
2018-10-21T08:06:29.917Z,99488.17
2018-10-21T08:08:58.439Z,99490.95
2018-10-21T08:11:31.326Z,99489.45
2018-10-21T08:14:01.829Z,99489.10
2018-10-21T08:16:32.372Z,99501.16
2018-10-21T08:19:00.777Z,99502.59
2018-10-21T08:24:28.614Z,99498.63
2018-10-21T08:26:57.227Z,99504.84
2018-10-21T08:29:25.567Z,99512.97
2018-10-21T08:31:53.892Z,99511.57
2018-10-21T08:34:22.402Z,99505.42
2018-10-21T08:36:50.964Z,99502.62
2018-10-21T08:39:19.605Z,99507.01
2018-10-21T08:41:49.030Z,99504.38
2018-10-21T08:44:17.886Z,99506.56
2018-10-21T08:46:46.418Z,99504.89
2018-10-21T08:49:15.178Z,99508.38
2018-10-21T08:51:43.650Z,99503.08
2018-10-21T08:54:13.216Z,99496.57
2018-10-21T08:56:41.677Z,99499.80
2018-10-21T08:59:11.194Z,99495.50
2018-10-21T09:01:45.145Z,99494.39
2018-10-21T09:04:14.809Z,99497.28
2018-10-21T09:06:50.567Z,99491.37
2018-10-21T09:09:21.001Z,99485.52
2018-10-21T09:11:50.414Z,99485.13
2018-10-21T09:14:25.496Z,99487.86
2018-10-21T09:16:53.999Z,99488.28
2018-10-21T09:19:23.627Z,99492.53
2018-10-21T09:21:58.357Z,99489.64
2018-10-21T09:24:26.800Z,99491.05
2018-10-21T09:26:55.126Z,99492.39
2018-10-21T09:29:23.522Z,99491.52
2018-10-21T09:31:51.886Z,99489.58
2018-10-21T09:34:20.446Z,99481.77
2018-10-21T09:36:48.933Z,99482.72
2018-10-21T09:39:17.736Z,99480.98
2018-10-21T09:41:57.672Z,99475.36
2018-10-21T09:47:19.283Z,99477.61
2018-10-21T09:49:47.762Z,99469.34
2018-10-21T09:52:17.445Z,99468.27
2018-10-21T09:54:46.097Z,99462.88
2018-10-21T09:57:14.698Z,99460.69
2018-10-21T09:59:43.385Z,99458.82
2018-10-21T10:02:17.199Z,99463.21
2018-10-21T10:04:45.709Z,99463.30
2018-10-21T10:07:14.656Z,99450.03
2018-10-21T10:09:43.205Z,99444.85
2018-10-21T10:12:11.793Z,99444.52
2018-10-21T10:14:41.400Z,99437.19
2018-10-21T10:17:10.273Z,99441.26
2018-10-21T10:19:38.855Z,99428.69
2018-10-21T10:22:08.620Z,99422.89
2018-10-21T10:24:37.204Z,99422.18
2018-10-21T10:27:06.105Z,99417.88
2018-10-21T10:29:34.751Z,99419.23
2018-10-21T10:32:06.002Z,99410.73
2018-10-21T10:34:34.683Z,99405.46
2018-10-21T10:37:03.456Z,99408.16
2018-10-21T10:39:31.984Z,99406.55
2018-10-21T10:42:00.817Z,99404.27
2018-10-21T10:44:30.121Z,99400.58
2018-10-21T10:46:58.710Z,99397.34
2018-10-21T10:49:27.249Z,99390.47
2018-10-21T10:51:56.043Z,99386.18
2018-10-21T10:54:24.533Z,99384.97
2018-10-21T10:56:53.170Z,99376.02
2018-10-21T10:59:21.895Z,99381.16
2018-10-21T11:01:50.555Z,99376.02
2018-10-21T11:04:19.156Z,99378.11
2018-10-21T11:06:55.982Z,99376.02
2018-10-21T11:09:26.455Z,99378.38
2018-10-21T11:12:01.904Z,99375.06
2018-10-21T11:14:32.953Z,99371.72
2018-10-21T11:17:01.459Z,99368.75
2018-10-21T11:19:29.923Z,99367.71
2018-10-21T11:21:58.541Z,99360.89
2018-10-21T11:24:27.840Z,99364.98
2018-10-21T11:26:56.383Z,99360.33
2018-10-21T11:29:24.905Z,99358.83
2018-10-21T11:31:53.425Z,99356.64
2018-10-21T11:34:21.860Z,99348.12
2018-10-21T11:36:50.593Z,99339.05
2018-10-21T11:39:18.952Z,99338.01
2018-10-21T11:41:47.552Z,99329.53
2018-10-21T11:44:16.232Z,99319.89
2018-10-21T11:46:44.831Z,99325.66
2018-10-21T11:49:13.278Z,99323.67
2018-10-21T11:51:42.131Z,99313.70
2018-10-21T11:54:10.671Z,99309.80
2018-10-21T11:56:39.427Z,99311.28
2018-10-21T11:59:08.520Z,99307.48
2018-10-21T12:01:37.035Z,99303.12
2018-10-21T12:04:05.843Z,99298.08
2018-10-21T12:06:34.361Z,99302.11
2018-10-21T12:09:03.123Z,99299.14
2018-10-21T12:11:32.049Z,99300.68
2018-10-21T12:14:00.906Z,99298.09
2018-10-21T12:16:30.547Z,99299.02
2018-10-21T12:19:15.500Z,99295.48
2018-10-21T12:21:44.694Z,99286.70
2018-10-21T12:24:13.184Z,99284.02
2018-10-21T12:26:41.627Z,99292.02
2018-10-21T12:29:10.084Z,99287.69
2018-10-21T12:31:38.347Z,99284.37
2018-10-21T12:34:06.849Z,99280.25
2018-10-21T12:36:35.154Z,99276.89
2018-10-21T12:39:05.363Z,99277.39
2018-10-21T12:41:34.019Z,99271.58
2018-10-21T12:44:02.318Z,99270.36
2018-10-21T12:46:30.624Z,99262.69
2018-10-21T12:48:59.024Z,99266.70
2018-10-21T12:51:27.364Z,99259.72
2018-10-21T12:53:55.660Z,99259.86
2018-10-21T12:56:24.278Z,99255.79
2018-10-21T12:58:53.240Z,99249.50
2018-10-21T13:01:21.750Z,99242.77
2018-10-21T13:03:50.125Z,99247.50
2018-10-21T13:06:18.548Z,99247.77
2018-10-21T13:08:47.119Z,99239.36
2018-10-21T13:11:15.491Z,99239.37
2018-10-21T13:13:43.778Z,99242.65
2018-10-21T13:16:12.190Z,99242.18
2018-10-21T13:18:40.450Z,99246.37
2018-10-21T13:21:08.779Z,99246.31
2018-10-21T13:23:37.319Z,99246.36
2018-10-21T13:26:05.922Z,99243.88
2018-10-21T13:28:34.252Z,99241.22
2018-10-21T13:31:02.569Z,99238.77
2018-10-21T13:33:30.796Z,99235.38
2018-10-21T13:35:59.156Z,99238.84
2018-10-21T13:38:27.524Z,99224.48
2018-10-21T13:40:55.927Z,99217.92
2018-10-21T13:43:24.258Z,99228.55
2018-10-21T13:45:52.805Z,99228.08
2018-10-21T13:48:21.112Z,99225.52
2018-10-21T13:50:49.560Z,99226.58
2018-10-21T13:53:18.166Z,99223.86
2018-10-21T13:55:46.488Z,99224.09
2018-10-21T13:58:14.936Z,99225.93
2018-10-21T14:00:43.281Z,99215.36
2018-10-21T14:03:11.595Z,99222.38
2018-10-21T14:05:39.922Z,99217.34
2018-10-21T14:08:08.273Z,99212.98
2018-10-21T14:10:36.580Z,99213.75
2018-10-21T14:13:05.799Z,99213.06
2018-10-21T14:15:34.290Z,99215.08
2018-10-21T14:18:02.656Z,99214.23
2018-10-21T14:20:30.993Z,99211.32
2018-10-21T14:22:59.413Z,99210.20
2018-10-21T14:25:27.843Z,99211.66
2018-10-21T14:27:56.594Z,99204.01
2018-10-21T14:30:24.920Z,99200.94
2018-10-21T14:32:53.415Z,99201.55
2018-10-21T14:35:21.854Z,99203.41
2018-10-21T14:37:50.300Z,99191.94
2018-10-21T14:40:18.958Z,99204.64
2018-10-21T14:42:47.308Z,99195.33
2018-10-21T14:45:15.722Z,99204.55
2018-10-21T14:47:44.011Z,99197.49
2018-10-21T14:50:12.723Z,99195.58
2018-10-21T14:52:41.136Z,99197.20
2018-10-21T14:55:10.499Z,99191.91
2018-10-21T14:57:39.059Z,99194.66
2018-10-21T15:00:09.451Z,99194.03
2018-10-21T15:02:37.723Z,99182.14
2018-10-21T15:05:09.045Z,99187.59
2018-10-21T15:07:37.502Z,99187.86
2018-10-21T15:10:07.175Z,99181.06
2018-10-21T15:12:35.603Z,99180.62
2018-10-21T15:15:04.049Z,99176.91
2018-10-21T15:17:32.458Z,99178.84
2018-10-21T15:20:00.874Z,99183.56
2018-10-21T15:22:29.352Z,99179.03
2018-10-21T15:24:57.704Z,99186.75
2018-10-21T15:27:26.189Z,99185.17
2018-10-21T15:29:54.585Z,99182.36
2018-10-21T15:32:22.890Z,99181.09
2018-10-21T15:34:51.314Z,99184.05
2018-10-21T15:37:19.591Z,99182.48
2018-10-21T15:39:48.083Z,99186.09
2018-10-21T15:42:16.401Z,99180.73
2018-10-21T15:44:44.728Z,99177.95
2018-10-21T15:47:13.095Z,99181.47
2018-10-21T15:49:41.411Z,99186.14
2018-10-21T15:52:15.320Z,99186.59
2018-10-21T15:54:44.098Z,99187.27
2018-10-21T15:57:12.444Z,99190.03
2018-10-21T15:59:41.256Z,99188.88
2018-10-21T16:02:09.972Z,99193.55
2018-10-21T16:04:38.504Z,99194.77
2018-10-21T16:07:06.983Z,99193.60
2018-10-21T16:09:35.278Z,99195.67
2018-10-21T16:12:03.765Z,99197.23
2018-10-21T16:14:32.437Z,99190.30
2018-10-21T16:17:01.789Z,99195.03
2018-10-21T16:19:30.068Z,99192.37
2018-10-21T16:21:58.488Z,99199.31
2018-10-21T16:24:26.984Z,99200.14
2018-10-21T16:26:55.436Z,99200.25
2018-10-21T16:29:24.121Z,99203.71
2018-10-21T16:31:52.581Z,99199.89
2018-10-21T16:34:20.848Z,99199.50
2018-10-21T16:36:49.343Z,99201.53
2018-10-21T16:39:17.848Z,99209.73
2018-10-21T16:41:46.323Z,99204.16
2018-10-21T16:44:21.230Z,99205.49
2018-10-21T16:46:49.656Z,99210.81
2018-10-21T16:49:18.030Z,99211.97
2018-10-21T16:51:46.365Z,99217.10
2018-10-21T16:54:14.864Z,99215.91
2018-10-21T16:56:43.162Z,99215.73
2018-10-21T16:59:11.561Z,99215.16
2018-10-21T17:01:39.938Z,99223.80
2018-10-21T17:04:08.297Z,99224.20
2018-10-21T17:06:36.716Z,99227.73
2018-10-21T17:09:08.912Z,99227.68
2018-10-21T17:11:42.719Z,99224.77
2018-10-21T17:14:11.245Z,99228.81
2018-10-21T17:16:40.110Z,99229.03
2018-10-21T17:19:08.783Z,99227.34
2018-10-21T17:21:37.148Z,99224.23
2018-10-21T17:24:05.770Z,99227.92
2018-10-21T17:26:34.100Z,99223.87
2018-10-21T17:29:02.604Z,99228.31
2018-10-21T17:31:31.085Z,99227.19
2018-10-21T17:33:59.546Z,99225.42
2018-10-21T17:36:27.829Z,99223.08
2018-10-21T17:38:56.142Z,99227.03
2018-10-21T17:41:24.806Z,99236.38
2018-10-21T17:43:53.189Z,99232.03
2018-10-21T17:46:21.633Z,99230.83
2018-10-21T17:48:50.203Z,99234.03
2018-10-21T17:51:18.651Z,99228.34
2018-10-21T17:53:47.076Z,99229.20
2018-10-21T17:56:15.630Z,99229.24
2018-10-21T17:58:44.005Z,99233.73
2018-10-21T18:01:12.823Z,99238.67
2018-10-21T18:03:41.091Z,99246.52
2018-10-21T18:06:09.510Z,99243.75
2018-10-21T18:08:38.081Z,99244.95
2018-10-21T18:11:07.000Z,99244.64
2018-10-21T18:13:35.440Z,99238.80
2018-10-21T18:16:03.943Z,99239.34
2018-10-21T18:18:32.379Z,99235.20
2018-10-21T18:21:00.942Z,99242.56
2018-10-21T18:23:29.336Z,99242.78
2018-10-21T18:25:57.710Z,99239.67
2018-10-21T18:28:26.186Z,99238.82
2018-10-21T18:30:54.513Z,99238.66
2018-10-21T18:33:22.866Z,99241.61
2018-10-21T18:35:51.206Z,99243.72
2018-10-21T18:38:19.536Z,99243.28
2018-10-21T18:40:47.961Z,99233.16
2018-10-21T18:43:16.195Z,99241.64
2018-10-21T18:45:44.451Z,99245.97
2018-10-21T18:48:12.766Z,99242.72
2018-10-21T18:50:41.122Z,99240.20
2018-10-21T18:53:09.395Z,99242.41
2018-10-21T18:55:38.012Z,99240.88
2018-10-21T18:58:06.397Z,99230.19
2018-10-21T19:00:34.948Z,99238.86
2018-10-21T19:03:03.267Z,99237.45
2018-10-21T19:05:31.608Z,99235.92
2018-10-21T19:07:59.988Z,99236.78
2018-10-21T19:10:28.449Z,99240.85
2018-10-21T19:13:00.052Z,99245.58
2018-10-21T19:15:25.121Z,99247.94
2018-10-21T19:17:53.447Z,99250.75
2018-10-21T19:20:21.776Z,99253.78
2018-10-21T19:22:50.932Z,99253.39
2018-10-21T19:25:23.181Z,99250.18
2018-10-21T19:27:52.125Z,99248.02
2018-10-21T19:30:24.651Z,99253.19
2018-10-21T19:32:55.285Z,99247.44
2018-10-21T19:35:26.260Z,99254.37
2018-10-21T19:37:54.704Z,99251.87
2018-10-21T19:40:23.077Z,99253.52
2018-10-21T19:42:51.485Z,99254.55
2018-10-21T19:45:20.014Z,99249.76
2018-10-21T19:47:48.403Z,99249.10
2018-10-21T19:50:17.241Z,99259.41
2018-10-21T19:52:45.806Z,99264.20
2018-10-21T19:55:14.170Z,99259.84
2018-10-21T19:57:43.044Z,99264.79
2018-10-21T20:00:14.058Z,99262.89
2018-10-21T20:02:42.687Z,99269.59
2018-10-21T20:05:11.104Z,99267.48
2018-10-21T20:07:39.405Z,99264.77
2018-10-21T20:10:09.450Z,99272.08
2018-10-21T20:12:38.060Z,99279.94
2018-10-21T20:15:08.084Z,99272.27
2018-10-21T20:17:36.358Z,99274.49
2018-10-21T20:20:05.180Z,99272.38
2018-10-21T20:22:35.185Z,99275.55
2018-10-21T20:25:03.826Z,99274.98
2018-10-21T20:27:32.187Z,99281.56
2018-10-21T20:30:00.639Z,99271.22
2018-10-21T20:32:29.071Z,99274.91
2018-10-21T20:34:57.406Z,99273.00
2018-10-21T20:37:25.690Z,99270.27
2018-10-21T20:39:54.090Z,99275.41
2018-10-21T20:42:22.781Z,99274.45
2018-10-21T20:44:51.307Z,99285.02
2018-10-21T20:47:19.907Z,99284.10
2018-10-21T20:49:48.212Z,99284.45
2018-10-21T20:52:16.956Z,99293.84
2018-10-21T20:54:46.449Z,99286.81
2018-10-21T20:57:14.971Z,99290.63
2018-10-21T20:59:44.530Z,99286.64
2018-10-21T21:02:14.004Z,99284.48
2018-10-21T21:04:42.812Z,99293.48
2018-10-21T21:07:11.724Z,99293.02
2018-10-21T21:09:40.689Z,99300.42
2018-10-21T21:12:09.064Z,99298.18
2018-10-21T21:14:37.547Z,99302.84
2018-10-21T21:17:06.144Z,99305.11
2018-10-21T21:19:34.640Z,99303.89
2018-10-21T21:22:03.262Z,99305.52
2018-10-21T21:24:31.997Z,99307.16
2018-10-21T21:27:00.419Z,99312.20
2018-10-21T21:29:28.767Z,99307.90
2018-10-21T21:31:57.071Z,99311.49
2018-10-21T21:34:25.513Z,99311.88
2018-10-21T21:36:53.922Z,99308.51
2018-10-21T21:39:22.574Z,99311.97
2018-10-21T21:41:50.882Z,99311.10
2018-10-21T21:44:19.318Z,99312.03
2018-10-21T21:46:47.849Z,99310.81
2018-10-21T21:49:16.224Z,99311.05
2018-10-21T21:51:44.534Z,99309.65
2018-10-21T21:54:13.792Z,99303.95
2018-10-21T21:56:42.692Z,99300.06
2018-10-21T21:59:11.077Z,99287.50
2018-10-21T22:01:39.409Z,99289.28
2018-10-21T22:04:08.252Z,99283.26
2018-10-21T22:06:36.777Z,99286.20
2018-10-21T22:09:09.231Z,99285.81
2018-10-21T22:11:38.259Z,99281.18
2018-10-21T22:14:07.043Z,99281.53
2018-10-21T22:16:35.350Z,99280.73
2018-10-21T22:19:03.797Z,99281.09
2018-10-21T22:21:32.190Z,99288.48
2018-10-21T22:24:00.521Z,99285.59
2018-10-21T22:26:28.927Z,99284.57
2018-10-21T22:28:57.299Z,99275.38
2018-10-21T22:31:25.785Z,99280.39
2018-10-21T22:33:54.170Z,99285.85
2018-10-21T22:36:22.456Z,99281.44
2018-10-21T22:38:50.849Z,99276.70
2018-10-21T22:41:19.270Z,99280.03
2018-10-21T22:43:47.529Z,99280.34
2018-10-21T22:46:16.037Z,99282.63
2018-10-21T22:48:44.487Z,99273.72
2018-10-21T22:51:12.787Z,99280.48
2018-10-21T22:53:41.208Z,99278.08
2018-10-21T22:56:09.568Z,99269.77
2018-10-21T22:58:37.856Z,99272.05
2018-10-21T23:01:07.358Z,99269.25
2018-10-21T23:03:35.634Z,99273.04
2018-10-21T23:06:04.055Z,99273.32
2018-10-21T23:08:33.186Z,99270.18
2018-10-21T23:11:01.599Z,99270.86
2018-10-21T23:13:30.088Z,99276.47
2018-10-21T23:15:58.619Z,99271.88
2018-10-21T23:18:27.002Z,99269.98
2018-10-21T23:20:55.464Z,99273.61
2018-10-21T23:23:23.890Z,99274.56
2018-10-21T23:25:52.128Z,99269.84
2018-10-21T23:28:20.752Z,99262.25
2018-10-21T23:30:48.990Z,99268.90
2018-10-21T23:33:17.247Z,99271.17
2018-10-21T23:35:45.579Z,99261.37
2018-10-21T23:38:14.020Z,99268.47
2018-10-21T23:40:42.424Z,99275.32
2018-10-21T23:43:10.782Z,99277.80
2018-10-21T23:45:39.036Z,99267.30
2018-10-21T23:48:07.443Z,99268.52
2018-10-21T23:50:35.763Z,99264.81
2018-10-21T23:53:04.098Z,99261.83
2018-10-21T23:55:32.377Z,99261.67
2018-10-21T23:58:01.000Z,99259.30
